createdAt,value
2019-04-10T00:01:12.061Z,9.47
2019-04-10T00:03:44.013Z,9.54
2019-04-10T00:06:18.568Z,9.54
2019-04-10T00:08:50.692Z,9.50
2019-04-10T00:11:22.849Z,9.47
2019-04-10T00:13:55.347Z,9.38
2019-04-10T00:16:27.788Z,9.38
2019-04-10T00:18:59.394Z,9.44
2019-04-10T00:21:31.447Z,9.36
2019-04-10T00:24:03.882Z,9.31
2019-04-10T00:26:35.662Z,9.33
2019-04-10T00:29:07.772Z,9.31
2019-04-10T00:31:40.230Z,9.32
2019-04-10T00:34:13.527Z,9.25
2019-04-10T00:36:45.623Z,9.25
2019-04-10T00:39:18.069Z,9.26
2019-04-10T00:41:49.635Z,9.25
2019-04-10T00:44:21.680Z,9.24
2019-04-10T00:46:53.433Z,9.21
2019-04-10T00:49:26.014Z,9.17
2019-04-10T00:51:57.546Z,9.12
2019-04-10T00:54:29.726Z,9.10
2019-04-10T00:57:01.176Z,9.11
2019-04-10T00:59:34.465Z,9.03
2019-04-10T01:02:05.739Z,9.00
2019-04-10T01:04:38.193Z,8.98
2019-04-10T01:07:10.686Z,8.98
2019-04-10T01:09:42.539Z,8.96
2019-04-10T01:12:14.233Z,8.92
2019-04-10T01:14:46.284Z,8.88
2019-04-10T01:17:17.878Z,8.83
2019-04-10T01:19:50.263Z,8.77
2019-04-10T01:22:21.467Z,8.69
2019-04-10T01:24:54.342Z,8.65
2019-04-10T01:27:26.236Z,8.65
2019-04-10T01:29:58.642Z,8.68
2019-04-10T01:32:30.445Z,8.69
2019-04-10T01:35:02.511Z,8.70
2019-04-10T01:37:46.897Z,8.67
2019-04-10T01:40:09.012Z,8.67
2019-04-10T01:42:40.837Z,8.63
2019-04-10T01:45:13.301Z,8.57
2019-04-10T01:47:44.308Z,8.54
2019-04-10T01:50:16.023Z,8.53
2019-04-10T01:52:47.800Z,8.54
2019-04-10T01:55:26.595Z,8.51
2019-04-10T01:57:54.692Z,8.49
2019-04-10T02:00:28.093Z,8.43
2019-04-10T02:02:59.757Z,8.41
2019-04-10T02:05:32.567Z,8.38
2019-04-10T02:08:10.023Z,8.38
2019-04-10T02:10:38.407Z,8.42
2019-04-10T02:13:09.973Z,8.42
2019-04-10T02:15:41.945Z,8.39
2019-04-10T02:18:13.549Z,8.34
2019-04-10T02:20:45.637Z,8.34
2019-04-10T02:23:19.129Z,8.36
2019-04-10T02:25:50.623Z,8.37
2019-04-10T02:28:22.773Z,8.39
2019-04-10T02:30:56.520Z,8.45
2019-04-10T02:33:29.354Z,8.47
2019-04-10T02:36:01.588Z,8.48
2019-04-10T02:38:49.276Z,8.50
2019-04-10T02:41:08.168Z,8.46
2019-04-10T02:43:39.918Z,8.46
2019-04-10T02:46:13.220Z,8.39
2019-04-10T02:48:45.344Z,8.35
2019-04-10T02:51:17.641Z,8.33
2019-04-10T02:53:50.178Z,8.32
2019-04-10T02:56:23.844Z,8.38
2019-04-10T02:58:56.708Z,8.35
2019-04-10T03:01:29.624Z,8.39
2019-04-10T03:04:01.521Z,8.40
2019-04-10T03:06:33.643Z,8.39
2019-04-10T03:09:24.154Z,8.39
2019-04-10T03:11:41.991Z,8.36
2019-04-10T03:14:14.784Z,8.40
2019-04-10T03:16:46.038Z,8.44
2019-04-10T03:19:19.121Z,8.49
2019-04-10T03:21:51.374Z,8.57
2019-04-10T03:24:23.325Z,8.68
2019-04-10T03:26:54.939Z,8.86
2019-04-10T03:29:27.427Z,9.54
2019-04-10T03:32:02.070Z,10.33
2019-04-10T03:34:38.857Z,11.22
2019-04-10T03:37:08.259Z,11.95
2019-04-10T03:39:40.571Z,12.78
2019-04-10T03:42:12.696Z,13.81
2019-04-10T03:44:45.206Z,14.69
2019-04-10T03:47:17.497Z,14.92
2019-04-10T03:49:49.851Z,15.68
2019-04-10T03:52:21.501Z,16.26
2019-04-10T03:54:54.512Z,16.76
2019-04-10T03:57:26.802Z,16.53
2019-04-10T03:59:58.659Z,17.29
2019-04-10T04:02:31.578Z,17.67
2019-04-10T04:05:04.390Z,17.26
2019-04-10T04:07:36.795Z,17.83
2019-04-10T04:10:09.304Z,18.29
2019-04-10T04:12:41.060Z,18.56
2019-04-10T04:15:13.596Z,18.58
2019-04-10T04:17:44.746Z,18.53
2019-04-10T04:20:16.937Z,19.41
2019-04-10T04:22:49.490Z,19.74
2019-04-10T04:25:21.892Z,20.85
2019-04-10T04:27:53.922Z,20.42
2019-04-10T04:30:25.820Z,19.95
2019-04-10T04:32:58.040Z,20.26
2019-04-10T04:35:30.047Z,21.34
2019-04-10T04:38:02.582Z,20.24
2019-04-10T04:40:35.672Z,21.84
2019-04-10T04:43:07.892Z,22.13
2019-04-10T04:45:40.093Z,25.07
2019-04-10T04:48:11.835Z,25.07
2019-04-10T04:50:43.975Z,24.51
2019-04-10T04:53:16.238Z,24.37
2019-04-10T04:55:47.838Z,24.42
2019-04-10T04:58:20.286Z,25.34
2019-04-10T05:00:52.400Z,25.83
2019-04-10T05:03:25.576Z,25.15
2019-04-10T05:05:58.221Z,25.15
2019-04-10T05:08:30.280Z,25.66
2019-04-10T05:11:02.189Z,26.56
2019-04-10T05:13:34.787Z,25.83
2019-04-10T05:16:07.949Z,25.01
2019-04-10T05:18:39.868Z,26.32
2019-04-10T05:21:12.719Z,28.21
2019-04-10T05:23:44.598Z,27.69
2019-04-10T05:26:16.612Z,25.33
2019-04-10T05:28:48.634Z,26.52
2019-04-10T05:31:21.474Z,27.08
2019-04-10T05:33:53.347Z,28.63
2019-04-10T05:36:25.665Z,29.22
2019-04-10T05:38:56.477Z,28.68
2019-04-10T05:41:29.372Z,29.38
2019-04-10T05:44:01.202Z,29.37
2019-04-10T05:46:32.988Z,29.71
2019-04-10T05:49:04.553Z,29.18
2019-04-10T05:51:37.471Z,29.53
2019-04-10T05:54:08.947Z,30.36
2019-04-10T05:56:41.149Z,31.65
2019-04-10T05:59:13.594Z,30.86
2019-04-10T06:01:46.272Z,31.16
2019-04-10T06:04:18.969Z,30.59
2019-04-10T06:06:50.711Z,30.34
2019-04-10T06:09:22.754Z,31.31
2019-04-10T06:11:55.296Z,28.83
2019-04-10T06:14:28.185Z,28.59
2019-04-10T06:17:03.659Z,28.88
2019-04-10T06:19:34.291Z,30.51
2019-04-10T06:22:06.207Z,32.43
2019-04-10T06:24:38.468Z,31.51
2019-04-10T06:27:10.396Z,32.76
2019-04-10T06:29:44.566Z,32.53
2019-04-10T06:32:15.615Z,31.33
2019-04-10T06:34:48.215Z,31.66
2019-04-10T06:37:19.878Z,31.81
2019-04-10T06:40:03.668Z,30.36
2019-04-10T06:42:26.575Z,31.57
2019-04-10T06:44:59.032Z,31.20
2019-04-10T06:47:30.633Z,32.24
2019-04-10T06:50:02.633Z,31.34
2019-04-10T06:52:34.583Z,33.71
2019-04-10T06:55:07.288Z,33.41
2019-04-10T06:57:46.808Z,32.83
2019-04-10T07:00:16.612Z,32.39
2019-04-10T07:02:48.438Z,33.45
2019-04-10T07:05:19.885Z,35.12
2019-04-10T07:07:56.658Z,36.80
2019-04-10T07:10:30.763Z,36.31
2019-04-10T07:12:59.568Z,34.78
2019-04-10T07:15:31.554Z,34.88
2019-04-10T07:18:03.104Z,34.38
2019-04-10T07:20:35.917Z,36.24
2019-04-10T07:23:08.073Z,35.21
2019-04-10T07:25:42.461Z,34.69
2019-04-10T07:28:13.730Z,35.04
2019-04-10T07:30:45.661Z,34.10
2019-04-10T07:33:19.430Z,34.37
2019-04-10T07:35:54.599Z,33.62
2019-04-10T07:38:24.762Z,33.29
2019-04-10T07:40:56.892Z,32.65
2019-04-10T07:43:29.497Z,31.30
2019-04-10T07:46:02.381Z,29.37
2019-04-10T07:48:34.033Z,26.53
2019-04-10T07:51:06.998Z,26.18
2019-04-10T07:53:39.582Z,27.28
2019-04-10T07:56:17.346Z,29.78
2019-04-10T07:58:46.005Z,29.64
2019-04-10T08:01:18.261Z,26.12
2019-04-10T08:03:52.214Z,24.33
2019-04-10T08:06:23.498Z,22.83
2019-04-10T08:08:56.286Z,23.21
2019-04-10T08:11:29.530Z,23.05
2019-04-10T08:14:01.803Z,22.81
2019-04-10T08:16:33.348Z,22.39
2019-04-10T08:19:06.278Z,22.23
2019-04-10T08:21:38.101Z,22.78
2019-04-10T08:24:09.897Z,22.64
2019-04-10T08:26:42.977Z,22.22
2019-04-10T08:29:14.650Z,21.90
2019-04-10T08:31:46.295Z,21.40
2019-04-10T08:34:19.401Z,21.78
2019-04-10T08:36:53.847Z,22.41
2019-04-10T08:39:33.983Z,21.73
2019-04-10T08:42:00.010Z,21.55
2019-04-10T08:44:32.260Z,21.34
2019-04-10T08:47:03.702Z,20.91
2019-04-10T08:49:35.482Z,20.86
2019-04-10T08:52:08.236Z,20.73
2019-04-10T08:54:40.502Z,20.73
2019-04-10T08:57:12.208Z,20.95
2019-04-10T08:59:45.320Z,21.28
2019-04-10T09:02:18.016Z,22.08
2019-04-10T09:04:49.959Z,22.08
2019-04-10T09:07:22.218Z,22.05
2019-04-10T09:09:54.256Z,22.21
2019-04-10T09:12:26.126Z,22.11
2019-04-10T09:14:59.239Z,21.99
2019-04-10T09:17:33.341Z,22.08
2019-04-10T09:20:08.809Z,21.81
2019-04-10T09:22:57.934Z,21.75
2019-04-10T09:25:13.839Z,21.51
2019-04-10T09:27:46.314Z,21.38
2019-04-10T09:30:18.445Z,21.29
2019-04-10T09:32:50.628Z,21.32
2019-04-10T09:35:22.537Z,21.46
2019-04-10T09:37:54.597Z,21.61
2019-04-10T09:40:27.966Z,21.59
2019-04-10T09:42:59.777Z,21.62
2019-04-10T09:45:31.452Z,21.55
2019-04-10T09:48:04.274Z,21.63
2019-04-10T09:50:36.816Z,21.57
2019-04-10T09:53:08.791Z,21.62
2019-04-10T09:55:40.488Z,21.65
2019-04-10T09:58:13.301Z,21.84
2019-04-10T10:00:45.848Z,21.91
2019-04-10T10:03:17.955Z,22.06
2019-04-10T10:05:51.306Z,22.13
2019-04-10T10:08:22.931Z,22.09
2019-04-10T10:10:55.566Z,22.08
2019-04-10T10:13:27.748Z,22.14
2019-04-10T10:16:00.751Z,22.32
2019-04-10T10:18:33.167Z,22.18
2019-04-10T10:21:04.197Z,22.39
2019-04-10T10:23:36.120Z,22.66
2019-04-10T10:26:07.991Z,22.70
2019-04-10T10:28:39.714Z,22.64
2019-04-10T10:31:11.649Z,22.66
2019-04-10T10:33:43.312Z,22.87
2019-04-10T10:36:15.856Z,23.07
2019-04-10T10:38:47.542Z,23.06
2019-04-10T10:41:20.227Z,23.18
2019-04-10T10:43:52.975Z,23.10
2019-04-10T10:46:25.173Z,23.40
2019-04-10T10:48:57.971Z,23.53
2019-04-10T10:51:30.830Z,23.46
2019-04-10T10:54:03.103Z,23.62
2019-04-10T10:56:36.329Z,23.54
2019-04-10T10:59:07.889Z,23.77
2019-04-10T11:01:40.021Z,24.09
2019-04-10T11:04:11.507Z,24.22
2019-04-10T11:06:55.337Z,24.26
2019-04-10T11:09:18.191Z,24.42
2019-04-10T11:11:49.816Z,24.30
2019-04-10T11:14:21.619Z,24.55
2019-04-10T11:16:56.119Z,24.51
2019-04-10T11:19:29.117Z,24.42
2019-04-10T11:22:01.016Z,24.28
2019-04-10T11:24:33.248Z,24.32
2019-04-10T11:27:06.617Z,24.03
2019-04-10T11:29:39.017Z,23.90
2019-04-10T11:32:11.663Z,23.95
2019-04-10T11:34:43.252Z,24.15
2019-04-10T11:37:24.151Z,24.50
2019-04-10T11:39:50.922Z,24.60
2019-04-10T11:42:23.527Z,25.02
2019-04-10T11:44:55.520Z,25.02
2019-04-10T11:47:26.805Z,25.05
2019-04-10T11:50:00.906Z,24.84
2019-04-10T11:52:39.653Z,24.99
2019-04-10T11:55:13.703Z,25.02
2019-04-10T11:57:41.978Z,25.15
2019-04-10T12:00:19.616Z,25.27
2019-04-10T12:02:52.760Z,25.20
2019-04-10T12:05:26.859Z,24.96
2019-04-10T12:08:22.093Z,24.86
2019-04-10T12:13:05.980Z,24.54
2019-04-10T12:15:39.212Z,24.11
2019-04-10T12:18:11.447Z,24.22
2019-04-10T12:20:43.160Z,24.25
2019-04-10T12:23:16.762Z,23.95
2019-04-10T12:25:49.387Z,23.87
2019-04-10T12:28:22.087Z,23.90
2019-04-10T12:30:53.663Z,24.20
2019-04-10T12:33:25.526Z,24.39
2019-04-10T12:35:58.191Z,24.53
2019-04-10T12:38:29.992Z,24.30
2019-04-10T12:41:01.502Z,24.21
2019-04-10T12:43:33.466Z,24.21
2019-04-10T12:46:05.544Z,24.25
2019-04-10T12:48:38.801Z,24.06
2019-04-10T12:51:11.864Z,24.04
2019-04-10T12:53:43.635Z,24.24
2019-04-10T12:56:15.773Z,24.22
2019-04-10T12:58:47.410Z,24.08
2019-04-10T13:01:19.060Z,24.45
2019-04-10T13:03:51.526Z,24.44
2019-04-10T13:06:24.177Z,24.29
2019-04-10T13:09:05.652Z,24.25
2019-04-10T13:11:30.169Z,24.26
2019-04-10T13:14:02.216Z,24.00
2019-04-10T13:16:34.258Z,23.97
2019-04-10T13:19:06.964Z,24.05
2019-04-10T13:21:38.955Z,24.24
2019-04-10T13:24:11.112Z,24.19
2019-04-10T13:26:42.888Z,24.10
2019-04-10T13:29:14.762Z,24.12
2019-04-10T13:31:46.745Z,24.21
2019-04-10T13:34:19.655Z,24.12
2019-04-10T13:36:51.651Z,24.14
2019-04-10T13:39:24.446Z,23.95
2019-04-10T13:41:56.731Z,23.99
2019-04-10T13:44:30.722Z,23.97
2019-04-10T13:47:02.691Z,24.01
2019-04-10T13:49:34.531Z,24.14
2019-04-10T13:52:05.791Z,24.12
2019-04-10T13:54:37.353Z,24.20
2019-04-10T13:57:09.824Z,24.29
2019-04-10T13:59:41.774Z,24.44
2019-04-10T14:02:17.321Z,24.46
2019-04-10T14:04:49.436Z,24.31
2019-04-10T14:07:22.119Z,24.35
2019-04-10T14:09:54.480Z,24.12
2019-04-10T14:12:27.082Z,24.02
2019-04-10T14:15:01.544Z,23.91
2019-04-10T14:17:33.719Z,23.73
2019-04-10T14:20:07.583Z,23.66
2019-04-10T14:22:41.964Z,23.59
2019-04-10T14:25:15.631Z,23.22
2019-04-10T14:27:47.362Z,21.74
2019-04-10T14:30:29.726Z,16.59
2019-04-10T14:33:01.422Z,15.01
2019-04-10T14:35:33.620Z,14.97
2019-04-10T14:38:06.557Z,15.26
2019-04-10T14:40:39.897Z,15.75
2019-04-10T14:43:12.441Z,16.12
2019-04-10T14:45:43.774Z,16.35
2019-04-10T14:48:16.107Z,16.50
2019-04-10T14:50:47.904Z,16.44
2019-04-10T14:53:20.149Z,16.54
2019-04-10T14:55:51.717Z,16.75
2019-04-10T14:58:28.181Z,16.94
2019-04-10T15:00:57.936Z,17.12
2019-04-10T15:03:30.678Z,17.18
2019-04-10T15:06:02.628Z,17.33
2019-04-10T15:08:35.603Z,17.58
2019-04-10T15:11:08.683Z,17.92
2019-04-10T15:13:40.898Z,18.82
2019-04-10T15:16:12.886Z,18.93
2019-04-10T15:18:45.836Z,19.00
2019-04-10T15:21:18.594Z,19.07
2019-04-10T15:23:51.071Z,19.16
2019-04-10T15:26:23.928Z,19.15
2019-04-10T15:28:56.317Z,19.12
2019-04-10T15:31:29.075Z,19.18
2019-04-10T15:34:01.602Z,19.09
2019-04-10T15:36:33.944Z,19.10
2019-04-10T15:39:08.695Z,19.14
2019-04-10T15:41:41.308Z,19.21
2019-04-10T15:44:14.084Z,19.17
2019-04-10T15:46:46.470Z,19.17
2019-04-10T15:49:19.406Z,19.19
2019-04-10T15:51:51.052Z,19.34
2019-04-10T15:54:23.652Z,19.31
2019-04-10T15:56:54.681Z,19.24
2019-04-10T15:59:26.792Z,19.12
2019-04-10T16:01:59.370Z,18.83
2019-04-10T16:04:31.668Z,18.60
2019-04-10T16:07:04.143Z,18.54
2019-04-10T16:09:46.409Z,18.40
2019-04-10T16:12:16.912Z,18.26
2019-04-10T16:14:50.669Z,18.01
2019-04-10T16:17:44.382Z,17.67
2019-04-10T16:20:21.744Z,17.32
2019-04-10T16:22:55.001Z,16.87
2019-04-10T16:25:30.156Z,16.62
2019-04-10T16:28:02.575Z,16.48
2019-04-10T16:30:34.924Z,16.36
2019-04-10T16:33:07.148Z,16.39
2019-04-10T16:35:40.091Z,16.44
2019-04-10T16:38:12.129Z,16.35
2019-04-10T16:40:44.027Z,16.06
2019-04-10T16:43:16.046Z,15.86
2019-04-10T16:45:48.986Z,15.69
2019-04-10T16:48:21.005Z,15.56
2019-04-10T16:50:53.970Z,15.56
2019-04-10T16:53:25.782Z,15.51
2019-04-10T16:55:59.042Z,15.59
2019-04-10T16:58:32.020Z,15.69
2019-04-10T17:01:04.414Z,15.71
2019-04-10T17:03:35.954Z,15.71
2019-04-10T17:06:08.245Z,15.80
2019-04-10T17:08:40.465Z,15.85
2019-04-10T17:11:12.618Z,15.81
2019-04-10T17:13:44.156Z,15.78
2019-04-10T17:16:17.647Z,15.82
2019-04-10T17:18:49.626Z,15.81
2019-04-10T17:21:21.519Z,15.77
2019-04-10T17:23:53.276Z,15.71
2019-04-10T17:26:26.599Z,15.69
2019-04-10T17:28:58.847Z,15.69
2019-04-10T17:31:30.858Z,15.80
2019-04-10T17:34:02.973Z,15.73
2019-04-10T17:36:34.855Z,15.63
2019-04-10T17:39:11.234Z,15.60
2019-04-10T17:41:43.890Z,15.55
2019-04-10T17:44:17.977Z,15.58
2019-04-10T17:46:51.265Z,15.53
2019-04-10T17:49:23.483Z,15.42
2019-04-10T17:51:54.958Z,15.38
2019-04-10T17:54:28.527Z,15.26
2019-04-10T17:57:00.985Z,15.13
2019-04-10T17:59:32.667Z,15.04
2019-04-10T18:02:07.401Z,14.94
2019-04-10T18:04:40.081Z,14.85
2019-04-10T18:07:12.157Z,14.80
2019-04-10T18:09:43.814Z,14.75
2019-04-10T18:12:16.292Z,14.69
2019-04-10T18:14:49.210Z,14.42
2019-04-10T18:17:21.221Z,14.59
2019-04-10T18:19:52.725Z,14.52
2019-04-10T18:22:24.826Z,14.48
2019-04-10T18:24:56.507Z,14.42
2019-04-10T18:27:28.276Z,14.39
2019-04-10T18:29:59.922Z,14.32
2019-04-10T18:32:31.884Z,14.28
2019-04-10T18:35:04.618Z,14.25
2019-04-10T18:37:37.066Z,14.32
2019-04-10T18:40:08.363Z,14.36
2019-04-10T18:42:40.145Z,14.30
2019-04-10T18:45:13.327Z,14.35
2019-04-10T18:47:46.097Z,14.37
2019-04-10T18:50:18.315Z,14.33
2019-04-10T18:52:49.976Z,14.31
2019-04-10T18:55:22.582Z,14.27
2019-04-10T18:57:54.919Z,14.14
2019-04-10T19:00:43.759Z,14.04
2019-04-10T19:03:17.849Z,13.92
2019-04-10T19:06:08.304Z,13.83
2019-04-10T19:08:39.852Z,13.74
2019-04-10T19:11:21.117Z,13.73
2019-04-10T19:13:47.248Z,13.74
2019-04-10T19:16:21.416Z,13.77
2019-04-10T19:18:53.778Z,13.82
2019-04-10T19:21:27.245Z,13.86
2019-04-10T19:23:59.159Z,13.90
2019-04-10T19:26:31.495Z,13.90
2019-04-10T19:29:03.392Z,13.86
2019-04-10T19:31:38.533Z,13.86
2019-04-10T19:34:10.225Z,13.81
2019-04-10T19:36:43.883Z,13.69
2019-04-10T19:39:16.091Z,13.66
2019-04-10T19:41:49.107Z,13.57
2019-04-10T19:44:21.199Z,13.52
2019-04-10T19:46:53.659Z,13.50
2019-04-10T19:49:25.260Z,13.49
2019-04-10T19:51:58.126Z,13.54
2019-04-10T19:54:30.221Z,13.49
2019-04-10T19:57:04.539Z,13.42
2019-04-10T19:59:36.327Z,13.31
2019-04-10T20:02:08.844Z,13.37
2019-04-10T20:04:40.954Z,13.44
2019-04-10T20:07:13.176Z,13.48
2019-04-10T20:09:46.241Z,13.54
2019-04-10T20:12:18.202Z,13.67
2019-04-10T20:14:50.642Z,13.76
2019-04-10T20:17:22.529Z,13.85
2019-04-10T20:19:56.718Z,13.93
2019-04-10T20:22:29.315Z,14.09
2019-04-10T20:25:02.154Z,14.25
2019-04-10T20:27:34.167Z,14.40
2019-04-10T20:30:09.907Z,14.56
2019-04-10T20:32:42.020Z,14.70
2019-04-10T20:35:14.058Z,14.77
2019-04-10T20:37:47.330Z,14.81
2019-04-10T20:40:20.758Z,14.80
2019-04-10T20:42:52.609Z,14.77
2019-04-10T20:45:25.313Z,14.78
2019-04-10T20:47:58.197Z,14.73
2019-04-10T20:50:30.113Z,14.71
2019-04-10T20:53:01.988Z,14.68
2019-04-10T20:55:35.558Z,14.65
2019-04-10T20:58:07.415Z,14.64
2019-04-10T21:00:41.248Z,14.60
2019-04-10T21:03:13.814Z,14.61
2019-04-10T21:05:46.690Z,14.60
2019-04-10T21:08:18.547Z,14.58
2019-04-10T21:10:51.370Z,14.55
2019-04-10T21:13:23.534Z,14.51
2019-04-10T21:15:55.634Z,14.44
2019-04-10T21:26:28.307Z,14.23
2019-04-10T21:29:00.884Z,14.08
2019-04-10T21:31:50.677Z,14.05
2019-04-10T21:34:37.012Z,14.03
2019-04-10T21:37:09.959Z,14.05
2019-04-10T21:39:42.235Z,14.01
2019-04-10T21:42:21.210Z,13.97
2019-04-10T21:44:49.147Z,13.96
2019-04-10T21:47:21.788Z,13.92
2019-04-10T21:49:53.419Z,13.87
2019-04-10T21:52:25.603Z,13.81
2019-04-10T21:55:00.493Z,13.76
2019-04-10T21:57:32.761Z,13.73
2019-04-10T22:00:10.069Z,13.72
2019-04-10T22:02:45.017Z,13.68
2019-04-10T22:05:17.111Z,13.70
2019-04-10T22:08:09.460Z,13.67
2019-04-10T22:10:46.145Z,13.67
2019-04-10T22:13:19.713Z,13.60
2019-04-10T22:15:51.986Z,13.56
2019-04-10T22:18:25.232Z,13.46
2019-04-10T22:20:58.567Z,13.41
2019-04-10T22:23:30.472Z,13.37
2019-04-10T22:26:02.286Z,13.35
2019-04-10T22:28:34.124Z,13.33
2019-04-10T22:31:06.105Z,13.29
2019-04-10T22:33:38.515Z,13.28
2019-04-10T22:36:10.798Z,13.25
2019-04-10T22:38:43.803Z,13.25
2019-04-10T22:41:23.613Z,13.27
2019-04-10T22:43:49.636Z,13.28
2019-04-10T22:46:21.561Z,13.27
2019-04-10T22:48:53.949Z,13.27
2019-04-10T22:51:26.917Z,13.24
2019-04-10T22:53:58.831Z,13.24
2019-04-10T22:56:31.558Z,13.24
2019-04-10T22:59:03.961Z,13.23
2019-04-10T23:01:35.819Z,13.23
2019-04-10T23:04:08.210Z,13.20
2019-04-10T23:06:39.671Z,13.15
2019-04-10T23:09:12.343Z,13.10
2019-04-10T23:11:46.463Z,13.08
2019-04-10T23:14:18.524Z,13.06
2019-04-10T23:16:50.512Z,13.01
2019-04-10T23:19:22.676Z,12.99
2019-04-10T23:21:54.620Z,12.95
2019-04-10T23:24:27.741Z,12.92
2019-04-10T23:27:01.720Z,12.97
2019-04-10T23:29:33.839Z,12.99
2019-04-10T23:32:05.954Z,12.99
2019-04-10T23:34:38.918Z,12.98
2019-04-10T23:37:10.921Z,12.97
2019-04-10T23:39:43.836Z,12.97
2019-04-10T23:42:15.930Z,12.99
2019-04-10T23:44:47.781Z,12.99
2019-04-10T23:47:20.095Z,13.01
2019-04-10T23:49:52.066Z,13.00
2019-04-10T23:52:23.787Z,13.02
2019-04-10T23:54:55.855Z,13.03
2019-04-10T23:57:27.785Z,13.03
